CheckWX is a tool to help pilots better visualize weather data.  It is not intended as a substitute for an official pre-flight weather briefing.

05:35:06 UTC

ENRO METAR
Røros Airport
Røros, Norway
Current

15 mins ago

ENRO 200520Z 17006KT 140V200 CAVOK M05/M08 Q1005
Observed
Feb-20 @ 05:20 UTC
Wind
  • 170° at 6 KTS
Visibility
10,000+ meters
Flight Rules
VFR
Cloud Levels
  • Clear skies
Temperature
-5°C / 23°F
Dewpoint
-8°C / 18°F
Humidity
80%
Altimeter
29.68" Hg
Pressure
1004.92 hPa
Previous

45 mins ago

ENRO 200450Z AUTO 20007KT 170V230 9999NDV FEW038/// OVC068/// M05/M08 Q1005
Observed
Feb-20 @ 04:50 UTC
Wind
  • 200° at 7 KTS
Visibility
Cloud Levels
  • Few at 3,800' AGL
  • Overcast at 6,800' AGL
Temperature
-5°C / 23°F
Dewpoint
-8°C / 18°F
Humidity
80%
Altimeter
29.68" Hg
Pressure
1004.92 hPa
Previous

1 hour ago

ENRO 200420Z AUTO 22007KT 9999NDV BKN040/// M05/M08 Q1004
Observed
Feb-20 @ 04:20 UTC
Wind
  • 220° at 7 KTS
Visibility
Cloud Levels
  • Broken at 4,000' AGL
Temperature
-5°C / 23°F
Dewpoint
-8°C / 18°F
Humidity
80%
Altimeter
29.65" Hg
Pressure
1003.92 hPa